sensor_id;sensor_type;location;lat;lon;timestamp;pressure;altitude;pressure_sealevel;temperature;humidity
59831;BME280;45711;50.108;13.712;2023-02-13T00:02:20;99919.16;;;2.11;97.83
59831;BME280;45711;50.108;13.712;2023-02-13T00:04:46;99921.44;;;2.14;97.87
59831;BME280;45711;50.108;13.712;2023-02-13T00:07:13;99929.31;;;2.22;97.55
59831;BME280;45711;50.108;13.712;2023-02-13T00:09:39;99920.53;;;1.99;98.70
59831;BME280;45711;50.108;13.712;2023-02-13T00:12:05;99919.19;;;2.03;99.19
59831;BME280;45711;50.108;13.712;2023-02-13T00:14:33;99921.31;;;2.08;99.01
59831;BME280;45711;50.108;13.712;2023-02-13T00:16:59;99925.72;;;2.15;98.59
59831;BME280;45711;50.108;13.712;2023-02-13T00:19:25;99921.91;;;2.18;98.28
59831;BME280;45711;50.108;13.712;2023-02-13T00:21:50;99924.59;;;2.10;99.22
59831;BME280;45711;50.108;13.712;2023-02-13T00:24:17;99922.25;;;2.15;99.94
59831;BME280;45711;50.108;13.712;2023-02-13T00:26:43;99931.78;;;2.24;98.85
59831;BME280;45711;50.108;13.712;2023-02-13T00:29:08;99928.94;;;2.25;98.47
59831;BME280;45711;50.108;13.712;2023-02-13T00:31:34;99926.31;;;2.25;98.39
59831;BME280;45711;50.108;13.712;2023-02-13T00:33:59;99922.75;;;2.18;98.90
59831;BME280;45711;50.108;13.712;2023-02-13T00:36:25;99926.34;;;2.17;98.96
59831;BME280;45711;50.108;13.712;2023-02-13T00:38:50;99927.31;;;2.24;99.70
59831;BME280;45711;50.108;13.712;2023-02-13T00:41:19;99928.25;;;2.32;99.42
59831;BME280;45711;50.108;13.712;2023-02-13T00:43:46;99931.25;;;2.74;97.02
59831;BME280;45711;50.108;13.712;2023-02-13T00:46:11;99933.34;;;2.79;95.51
59831;BME280;45711;50.108;13.712;2023-02-13T00:48:37;99933.31;;;2.41;97.74
59831;BME280;45711;50.108;13.712;2023-02-13T00:51:04;99937.47;;;2.36;97.69
59831;BME280;45711;50.108;13.712;2023-02-13T00:53:29;99938.34;;;2.28;98.43
59831;BME280;45711;50.108;13.712;2023-02-13T00:55:55;99934.53;;;2.31;98.84
59831;BME280;45711;50.108;13.712;2023-02-13T00:58:23;99933.66;;;2.38;99.10
59831;BME280;45711;50.108;13.712;2023-02-13T01:00:49;99928.13;;;2.48;98.54
59831;BME280;45711;50.108;13.712;2023-02-13T01:03:16;99928.84;;;2.19;98.76
59831;BME280;45711;50.108;13.712;2023-02-13T01:05:43;99933.13;;;2.20;99.00
59831;BME280;45711;50.108;13.712;2023-02-13T01:08:08;99936.00;;;2.33;98.41
59831;BME280;45711;50.108;13.712;2023-02-13T01:10:36;99934.13;;;2.42;97.62
59831;BME280;45711;50.108;13.712;2023-02-13T01:13:01;99928.38;;;2.38;98.53
59831;BME280;45711;50.108;13.712;2023-02-13T01:15:28;99929.84;;;2.41;98.16
59831;BME280;45711;50.108;13.712;2023-02-13T01:17:54;99927.69;;;2.44;98.12
59831;BME280;45711;50.108;13.712;2023-02-13T01:20:22;99929.03;;;2.40;97.30
59831;BME280;45711;50.108;13.712;2023-02-13T01:22:48;99924.47;;;2.26;97.34
59831;BME280;45711;50.108;13.712;2023-02-13T01:25:14;99929.66;;;2.42;97.53
59831;BME280;45711;50.108;13.712;2023-02-13T01:27:40;99916.97;;;2.38;96.92
59831;BME280;45711;50.108;13.712;2023-02-13T01:30:08;99927.28;;;2.01;98.22
59831;BME280;45711;50.108;13.712;2023-02-13T01:32:39;99923.00;;;2.00;98.90
59831;BME280;45711;50.108;13.712;2023-02-13T01:35:06;99921.81;;;2.03;98.47
59831;BME280;45711;50.108;13.712;2023-02-13T01:37:31;99917.03;;;2.07;98.26
59831;BME280;45711;50.108;13.712;2023-02-13T01:39:57;99915.91;;;2.01;98.89
59831;BME280;45711;50.108;13.712;2023-02-13T01:42:25;99909.44;;;2.04;98.93
59831;BME280;45711;50.108;13.712;2023-02-13T01:44:52;99919.47;;;2.08;99.10
59831;BME280;45711;50.108;13.712;2023-02-13T01:47:23;99916.50;;;2.11;98.37
59831;BME280;45711;50.108;13.712;2023-02-13T01:49:57;99908.44;;;2.05;99.16
59831;BME280;45711;50.108;13.712;2023-02-13T01:52:24;99912.31;;;2.17;98.74
59831;BME280;45711;50.108;13.712;2023-02-13T01:54:49;99911.34;;;2.18;98.82
59831;BME280;45711;50.108;13.712;2023-02-13T01:57:18;99902.13;;;2.14;99.16
59831;BME280;45711;50.108;13.712;2023-02-13T01:59:49;99898.19;;;2.10;99.47
59831;BME280;45711;50.108;13.712;2023-02-13T02:02:16;99898.06;;;2.26;99.13
59831;BME280;45711;50.108;13.712;2023-02-13T02:04:43;99900.56;;;2.28;98.91
59831;BME280;45711;50.108;13.712;2023-02-13T02:07:14;99901.72;;;2.25;98.61
59831;BME280;45711;50.108;13.712;2023-02-13T02:09:42;99907.19;;;2.23;98.42
59831;BME280;45711;50.108;13.712;2023-02-13T02:12:16;99903.28;;;2.11;98.54
59831;BME280;45711;50.108;13.712;2023-02-13T02:14:44;99900.94;;;2.16;99.03
59831;BME280;45711;50.108;13.712;2023-02-13T02:17:10;99904.59;;;2.15;98.80
59831;BME280;45711;50.108;13.712;2023-02-13T02:19:40;99894.03;;;2.15;98.67
59831;BME280;45711;50.108;13.712;2023-02-13T02:25:43;99898.16;;;2.18;98.50
59831;BME280;45711;50.108;13.712;2023-02-13T02:28:40;99901.94;;;2.15;98.54
59831;BME280;45711;50.108;13.712;2023-02-13T02:31:55;99902.44;;;2.19;98.82
59831;BME280;45711;50.108;13.712;2023-02-13T02:34:30;99900.88;;;2.24;98.70
59831;BME280;45711;50.108;13.712;2023-02-13T02:37:11;99900.47;;;2.13;98.73
59831;BME280;45711;50.108;13.712;2023-02-13T02:39:47;99891.72;;;1.89;99.36
59831;BME280;45711;50.108;13.712;2023-02-13T02:42:25;99886.13;;;1.84;100.00
59831;BME280;45711;50.108;13.712;2023-02-13T02:44:55;99889.78;;;1.83;99.96
59831;BME280;45711;50.108;13.712;2023-02-13T02:47:30;99889.13;;;1.81;100.00
59831;BME280;45711;50.108;13.712;2023-02-13T02:50:25;99879.56;;;1.80;100.00
59831;BME280;45711;50.108;13.712;2023-02-13T02:53:15;99882.47;;;2.16;100.00
59831;BME280;45711;50.108;13.712;2023-02-13T02:55:51;99885.97;;;2.09;99.20
59831;BME280;45711;50.108;13.712;2023-02-13T02:58:20;99885.84;;;2.02;99.27
59831;BME280;45711;50.108;13.712;2023-02-13T03:01:10;99886.56;;;1.96;99.84
59831;BME280;45711;50.108;13.712;2023-02-13T03:03:57;99874.28;;;1.80;100.00
59831;BME280;45711;50.108;13.712;2023-02-13T03:06:45;99878.56;;;1.81;100.00
59831;BME280;45711;50.108;13.712;2023-02-13T03:09:23;99874.03;;;1.90;100.00
59831;BME280;45711;50.108;13.712;2023-02-13T03:12:10;99881.91;;;1.98;100.00
59831;BME280;45711;50.108;13.712;2023-02-13T03:14:56;99876.25;;;2.09;100.00
59831;BME280;45711;50.108;13.712;2023-02-13T03:17:22;99882.47;;;2.16;100.00
59831;BME280;45711;50.108;13.712;2023-02-13T03:20:16;99885.00;;;2.33;98.19
59831;BME280;45711;50.108;13.712;2023-02-13T03:23:11;99898.72;;;2.28;98.63
59831;BME280;45711;50.108;13.712;2023-02-13T03:25:55;99887.06;;;2.22;98.72
59831;BME280;45711;50.108;13.712;2023-02-13T03:28:31;99878.75;;;2.25;99.65
59831;BME280;45711;50.108;13.712;2023-02-13T03:31:24;99880.41;;;2.26;99.02
59831;BME280;45711;50.108;13.712;2023-02-13T03:33:56;99881.41;;;2.25;99.27
59831;BME280;45711;50.108;13.712;2023-02-13T03:36:37;99882.47;;;2.16;99.18
59831;BME280;45711;50.108;13.712;2023-02-13T03:39:29;99878.66;;;2.19;100.00
59831;BME280;45711;50.108;13.712;2023-02-13T03:42:00;99879.22;;;2.29;99.00
59831;BME280;45711;50.108;13.712;2023-02-13T03:44:30;99873.13;;;2.29;99.01
59831;BME280;45711;50.108;13.712;2023-02-13T03:47:00;99875.13;;;2.26;99.52
59831;BME280;45711;50.108;13.712;2023-02-13T03:49:32;99878.59;;;2.27;98.95
59831;BME280;45711;50.108;13.712;2023-02-13T03:52:25;99876.88;;;2.34;99.95
59831;BME280;45711;50.108;13.712;2023-02-13T03:54:56;99879.13;;;2.22;99.08
59831;BME280;45711;50.108;13.712;2023-02-13T03:57:45;99872.84;;;2.23;99.68
59831;BME280;45711;50.108;13.712;2023-02-13T04:00:35;99880.47;;;2.18;100.00
59831;BME280;45711;50.108;13.712;2023-02-13T04:03:08;99873.53;;;2.17;100.00
59831;BME280;45711;50.108;13.712;2023-02-13T04:05:38;99865.19;;;2.29;100.00
59831;BME280;45711;50.108;13.712;2023-02-13T04:08:06;99870.78;;;2.34;99.13
59831;BME280;45711;50.108;13.712;2023-02-13T04:10:35;99872.19;;;2.21;98.96
59831;BME280;45711;50.108;13.712;2023-02-13T04:13:07;99874.47;;;2.01;99.72
59831;BME280;45711;50.108;13.712;2023-02-13T04:15:39;99868.19;;;2.03;99.66
59831;BME280;45711;50.108;13.712;2023-02-13T04:18:08;99878.22;;;2.07;99.56
59831;BME280;45711;50.108;13.712;2023-02-13T04:20:36;99875.25;;;2.10;100.00
59831;BME280;45711;50.108;13.712;2023-02-13T04:23:08;99863.34;;;2.14;98.84
59831;BME280;45711;50.108;13.712;2023-02-13T04:25:38;99878.47;;;2.20;99.54
59831;BME280;45711;50.108;13.712;2023-02-13T04:28:05;99872.72;;;2.17;99.20
59831;BME280;45711;50.108;13.712;2023-02-13T04:30:31;99880.63;;;2.17;99.19
59831;BME280;45711;50.108;13.712;2023-02-13T04:32:57;99884.28;;;2.16;99.36
59831;BME280;45711;50.108;13.712;2023-02-13T04:35:23;99879.53;;;2.11;99.35
59831;BME280;45711;50.108;13.712;2023-02-13T04:37:48;99883.47;;;2.15;100.00
59831;BME280;45711;50.108;13.712;2023-02-13T04:40:15;99875.59;;;2.30;100.00
59831;BME280;45711;50.108;13.712;2023-02-13T04:42:41;99876.78;;;2.28;100.00
59831;BME280;45711;50.108;13.712;2023-02-13T04:45:07;99881.53;;;2.32;99.28
59831;BME280;45711;50.108;13.712;2023-02-13T04:47:33;99877.06;;;2.33;99.11
59831;BME280;45711;50.108;13.712;2023-02-13T04:49:59;99874.53;;;2.16;99.46
59831;BME280;45711;50.108;13.712;2023-02-13T04:52:24;99881.03;;;2.51;98.18
59831;BME280;45711;50.108;13.712;2023-02-13T04:54:50;99877.06;;;2.33;98.10
59831;BME280;45711;50.108;13.712;2023-02-13T04:57:16;99877.13;;;2.24;98.79
59831;BME280;45711;50.108;13.712;2023-02-13T04:59:42;99882.75;;;2.21;98.95
59831;BME280;45711;50.108;13.712;2023-02-13T05:02:08;99879.28;;;2.21;99.42
59831;BME280;45711;50.108;13.712;2023-02-13T05:04:33;99879.19;;;2.14;99.64
59831;BME280;45711;50.108;13.712;2023-02-13T05:06:59;99872.59;;;2.10;99.37
59831;BME280;45711;50.108;13.712;2023-02-13T05:09:24;99878.72;;;2.11;99.64
59831;BME280;45711;50.108;13.712;2023-02-13T05:11:51;99878.38;;;2.14;99.93
59831;BME280;45711;50.108;13.712;2023-02-13T05:14:18;99882.50;;;2.08;99.94
59831;BME280;45711;50.108;13.712;2023-02-13T05:16:44;99875.63;;;2.22;100.00
59831;BME280;45711;50.108;13.712;2023-02-13T05:19:09;99891.56;;;2.37;97.95
59831;BME280;45711;50.108;13.712;2023-02-13T05:21:35;99887.06;;;2.22;99.21
59831;BME280;45711;50.108;13.712;2023-02-13T05:24:19;99886.81;;;2.09;99.66
59831;BME280;45711;50.108;13.712;2023-02-13T05:26:44;99883.41;;;2.23;99.52
59831;BME280;45711;50.108;13.712;2023-02-13T05:29:10;99880.81;;;2.15;98.74
59831;BME280;45711;50.108;13.712;2023-02-13T05:31:49;99893.06;;;2.08;98.64
59831;BME280;45711;50.108;13.712;2023-02-13T05:34:15;99879.00;;;1.93;99.54
59831;BME280;45711;50.108;13.712;2023-02-13T05:36:41;99878.69;;;1.88;99.42
59831;BME280;45711;50.108;13.712;2023-02-13T05:39:07;99885.75;;;2.18;100.00
59831;BME280;45711;50.108;13.712;2023-02-13T05:41:32;99887.22;;;2.21;98.35
59831;BME280;45711;50.108;13.712;2023-02-13T05:43:58;99890.31;;;2.24;99.12
59831;BME280;45711;50.108;13.712;2023-02-13T05:46:23;99884.50;;;2.06;99.31
59831;BME280;45711;50.108;13.712;2023-02-13T05:48:52;99893.53;;;2.12;99.32
59831;BME280;45711;50.108;13.712;2023-02-13T05:51:17;99884.38;;;1.99;99.35
59831;BME280;45711;50.108;13.712;2023-02-13T05:53:43;99883.25;;;1.94;99.89
59831;BME280;45711;50.108;13.712;2023-02-13T05:56:08;99896.91;;;2.06;99.74
59831;BME280;45711;50.108;13.712;2023-02-13T05:58:34;99887.97;;;2.07;99.31
59831;BME280;45711;50.108;13.712;2023-02-13T06:01:00;99896.44;;;2.25;98.89
59831;BME280;45711;50.108;13.712;2023-02-13T06:03:26;99893.53;;;2.12;99.12
59831;BME280;45711;50.108;13.712;2023-02-13T06:05:54;99896.38;;;2.10;99.23
59831;BME280;45711;50.108;13.712;2023-02-13T06:08:20;99889.03;;;2.20;98.97
59831;BME280;45711;50.108;13.712;2023-02-13T06:10:46;99890.81;;;2.05;99.55
59831;BME280;45711;50.108;13.712;2023-02-13T06:13:11;99893.50;;;1.97;100.00
59831;BME280;45711;50.108;13.712;2023-02-13T06:15:38;99892.19;;;2.16;99.73
59831;BME280;45711;50.108;13.712;2023-02-13T06:18:03;99894.56;;;2.11;99.98
59831;BME280;45711;50.108;13.712;2023-02-13T06:20:29;99900.50;;;2.36;98.41
59831;BME280;45711;50.108;13.712;2023-02-13T06:22:55;99892.88;;;2.18;98.75
59831;BME280;45711;50.108;13.712;2023-02-13T06:25:21;99901.47;;;2.12;99.43
59831;BME280;45711;50.108;13.712;2023-02-13T06:27:47;99905.47;;;2.08;100.00
59831;BME280;45711;50.108;13.712;2023-02-13T06:30:14;99908.81;;;2.24;99.14
59831;BME280;45711;50.108;13.712;2023-02-13T06:32:39;99904.97;;;2.04;99.83
59831;BME280;45711;50.108;13.712;2023-02-13T06:35:06;99910.16;;;2.43;98.69
59831;BME280;45711;50.108;13.712;2023-02-13T06:37:32;99907.88;;;2.17;98.86
59831;BME280;45711;50.108;13.712;2023-02-13T06:39:59;99909.06;;;2.15;98.96
59831;BME280;45711;50.108;13.712;2023-02-13T06:42:25;99905.84;;;2.28;99.51
59831;BME280;45711;50.108;13.712;2023-02-13T06:44:50;99911.69;;;2.15;98.89
59831;BME280;45711;50.108;13.712;2023-02-13T06:47:16;99915.50;;;2.12;99.59
59831;BME280;45711;50.108;13.712;2023-02-13T06:49:42;99907.00;;;2.02;99.49
59831;BME280;45711;50.108;13.712;2023-02-13T06:52:07;99912.75;;;2.06;100.00
59831;BME280;45711;50.108;13.712;2023-02-13T06:54:33;99907.88;;;2.17;99.27
59831;BME280;45711;50.108;13.712;2023-02-13T06:56:59;99913.84;;;2.11;99.49
59831;BME280;45711;50.108;13.712;2023-02-13T06:59:25;99916.97;;;2.15;99.70
59831;BME280;45711;50.108;13.712;2023-02-13T07:01:50;99918.50;;;2.09;98.95
59831;BME280;45711;50.108;13.712;2023-02-13T07:04:16;99917.31;;;2.12;99.72
59831;BME280;45711;50.108;13.712;2023-02-13T07:06:41;99920.47;;;2.07;99.59
59831;BME280;45711;50.108;13.712;2023-02-13T07:09:07;99921.84;;;2.26;99.40
59831;BME280;45711;50.108;13.712;2023-02-13T07:11:33;99919.16;;;2.11;98.96
59831;BME280;45711;50.108;13.712;2023-02-13T07:13:59;99919.44;;;2.16;99.49
59831;BME280;45711;50.108;13.712;2023-02-13T07:16:25;99926.97;;;2.28;99.06
59831;BME280;45711;50.108;13.712;2023-02-13T07:18:51;99927.97;;;2.26;99.06
59831;BME280;45711;50.108;13.712;2023-02-13T07:21:16;99927.66;;;2.21;99.01
59831;BME280;45711;50.108;13.712;2023-02-13T07:23:42;99920.91;;;2.19;99.22
59831;BME280;45711;50.108;13.712;2023-02-13T07:26:07;99928.59;;;2.29;98.80
59831;BME280;45711;50.108;13.712;2023-02-13T07:28:35;99933.66;;;2.38;98.50
59831;BME280;45711;50.108;13.712;2023-02-13T07:31:04;99933.00;;;2.59;97.19
59831;BME280;45711;50.108;13.712;2023-02-13T07:33:30;99931.28;;;2.43;97.96
59831;BME280;45711;50.108;13.712;2023-02-13T07:35:56;99929.44;;;2.29;99.15
59831;BME280;45711;50.108;13.712;2023-02-13T07:38:21;99926.97;;;2.50;98.40
59831;BME280;45711;50.108;13.712;2023-02-13T07:40:47;99937.72;;;2.49;98.02
59831;BME280;45711;50.108;13.712;2023-02-13T07:43:12;99932.44;;;2.49;98.20
59831;BME280;45711;50.108;13.712;2023-02-13T07:45:38;99932.00;;;2.60;97.78
59831;BME280;45711;50.108;13.712;2023-02-13T07:48:05;99936.81;;;2.57;98.02
59831;BME280;45711;50.108;13.712;2023-02-13T07:50:31;99932.19;;;2.59;97.94
59831;BME280;45711;50.108;13.712;2023-02-13T07:52:59;99935.69;;;2.74;97.55
59831;BME280;45711;50.108;13.712;2023-02-13T07:55:25;99931.31;;;2.66;97.50
59831;BME280;45711;50.108;13.712;2023-02-13T07:57:51;99938.91;;;2.84;96.38
59831;BME280;45711;50.108;13.712;2023-02-13T08:00:18;99932.16;;;2.82;95.78
59831;BME280;45711;50.108;13.712;2023-02-13T08:02:44;99937.44;;;2.82;96.66
59831;BME280;45711;50.108;13.712;2023-02-13T08:05:11;99931.94;;;2.68;97.32
59831;BME280;45711;50.108;13.712;2023-02-13T08:07:36;99940.69;;;2.69;97.59
59831;BME280;45711;50.108;13.712;2023-02-13T08:10:03;99936.22;;;2.69;97.91
59831;BME280;45711;50.108;13.712;2023-02-13T08:12:49;99939.41;;;2.65;98.38
59831;BME280;45711;50.108;13.712;2023-02-13T08:15:15;99929.00;;;2.63;97.79
59831;BME280;45711;50.108;13.712;2023-02-13T08:17:41;99934.84;;;2.59;98.68
59831;BME280;45711;50.108;13.712;2023-02-13T08:20:08;99931.38;;;2.58;98.51
59831;BME280;45711;50.108;13.712;2023-02-13T08:22:36;99932.97;;;2.82;97.22
59831;BME280;45711;50.108;13.712;2023-02-13T08:25:02;99929.56;;;3.11;94.48
59831;BME280;45711;50.108;13.712;2023-02-13T08:27:28;99925.38;;;3.02;96.16
59831;BME280;45711;50.108;13.712;2023-02-13T08:29:54;99922.53;;;3.03;96.29
59831;BME280;45711;50.108;13.712;2023-02-13T08:32:20;99920.28;;;3.15;95.74
59831;BME280;45711;50.108;13.712;2023-02-13T08:34:46;99925.66;;;3.22;95.50
59831;BME280;45711;50.108;13.712;2023-02-13T08:37:12;99922.56;;;3.18;95.45
59831;BME280;45711;50.108;13.712;2023-02-13T08:39:39;99917.91;;;3.20;95.43
59831;BME280;45711;50.108;13.712;2023-02-13T08:42:04;99919.47;;;3.44;93.64
59831;BME280;45711;50.108;13.712;2023-02-13T08:44:30;99920.66;;;3.42;95.33
59831;BME280;45711;50.108;13.712;2023-02-13T08:46:56;99923.56;;;3.47;94.75
59831;BME280;45711;50.108;13.712;2023-02-13T08:49:21;99923.81;;;3.52;94.25
59831;BME280;45711;50.108;13.712;2023-02-13T08:51:48;99929.50;;;3.64;93.18
59831;BME280;45711;50.108;13.712;2023-02-13T08:54:13;99925.56;;;3.74;90.33
59831;BME280;45711;50.108;13.712;2023-02-13T08:56:43;99925.53;;;3.89;89.94
59831;BME280;45711;50.108;13.712;2023-02-13T08:59:09;99923.69;;;3.90;92.92
59831;BME280;45711;50.108;13.712;2023-02-13T09:01:34;99916.88;;;3.81;92.82
59831;BME280;45711;50.108;13.712;2023-02-13T09:04:00;99920.50;;;3.94;88.36
59831;BME280;45711;50.108;13.712;2023-02-13T09:06:25;99920.84;;;4.06;91.81
59831;BME280;45711;50.108;13.712;2023-02-13T09:08:52;99920.56;;;4.01;91.30
59831;BME280;45711;50.108;13.712;2023-02-13T09:11:17;99910.50;;;4.11;88.40
59831;BME280;45711;50.108;13.712;2023-02-13T09:13:45;99926.88;;;4.21;86.91
59831;BME280;45711;50.108;13.712;2023-02-13T09:16:12;99929.97;;;4.40;91.74
59831;BME280;45711;50.108;13.712;2023-02-13T09:18:38;99926.09;;;4.42;90.91
59831;BME280;45711;50.108;13.712;2023-02-13T09:21:05;99930.31;;;4.37;85.58
59831;BME280;45711;50.108;13.712;2023-02-13T09:23:32;99924.25;;;4.43;89.52
59831;BME280;45711;50.108;13.712;2023-02-13T09:25:58;99925.03;;;4.58;88.79
59831;BME280;45711;50.108;13.712;2023-02-13T09:28:25;99922.09;;;4.74;89.92
59831;BME280;45711;50.108;13.712;2023-02-13T09:30:52;99935.22;;;4.61;85.45
59831;BME280;45711;50.108;13.712;2023-02-13T09:33:17;99934.63;;;4.59;84.17
59831;BME280;45711;50.108;13.712;2023-02-13T09:35:43;99938.53;;;4.63;86.39
59831;BME280;45711;50.108;13.712;2023-02-13T09:38:08;99932.06;;;4.72;86.48
59831;BME280;45711;50.108;13.712;2023-02-13T09:40:38;99924.94;;;4.51;84.13
59831;BME280;45711;50.108;13.712;2023-02-13T09:43:12;99933.78;;;4.59;85.58
59831;BME280;45711;50.108;13.712;2023-02-13T09:45:41;99939.84;;;4.74;85.90
59831;BME280;45711;50.108;13.712;2023-02-13T09:48:09;99935.91;;;4.70;83.90
59831;BME280;45711;50.108;13.712;2023-02-13T09:50:39;99939.78;;;4.67;84.92
59831;BME280;45711;50.108;13.712;2023-02-13T09:53:05;99929.34;;;4.66;83.54
59831;BME280;45711;50.108;13.712;2023-02-13T09:55:36;99930.63;;;4.70;83.69
59831;BME280;45711;50.108;13.712;2023-02-13T09:58:08;99927.91;;;4.63;82.98
59831;BME280;45711;50.108;13.712;2023-02-13T10:00:41;99935.09;;;4.69;83.59
59831;BME280;45711;50.108;13.712;2023-02-13T10:03:22;99934.28;;;4.47;84.05
59831;BME280;45711;50.108;13.712;2023-02-13T10:05:57;99932.09;;;4.51;83.58
59831;BME280;45711;50.108;13.712;2023-02-13T10:08:33;99933.28;;;4.70;83.80
59831;BME280;45711;50.108;13.712;2023-02-13T10:11:10;99942.69;;;4.51;82.91
59831;BME280;45711;50.108;13.712;2023-02-13T10:13:53;99943.13;;;4.54;83.56
59831;BME280;45711;50.108;13.712;2023-02-13T10:16:22;99942.91;;;4.99;83.31
59831;BME280;45711;50.108;13.712;2023-02-13T10:18:53;99943.56;;;5.01;81.55
59831;BME280;45711;50.108;13.712;2023-02-13T10:21:29;99936.34;;;5.92;78.93
59831;BME280;45711;50.108;13.712;2023-02-13T10:24:00;99939.16;;;5.15;80.44
59831;BME280;45711;50.108;13.712;2023-02-13T10:26:31;99936.56;;;6.04;77.66
59831;BME280;45711;50.108;13.712;2023-02-13T10:29:14;99935.06;;;5.88;76.61
59831;BME280;45711;50.108;13.712;2023-02-13T10:32:02;99944.63;;;6.30;73.60
59831;BME280;45711;50.108;13.712;2023-02-13T10:34:34;99940.66;;;5.65;76.65
59831;BME280;45711;50.108;13.712;2023-02-13T10:37:02;99942.94;;;5.34;78.83
59831;BME280;45711;50.108;13.712;2023-02-13T10:39:32;99942.78;;;5.42;78.38
59831;BME280;45711;50.108;13.712;2023-02-13T10:42:04;99944.75;;;4.98;79.76
59831;BME280;45711;50.108;13.712;2023-02-13T10:44:41;99936.31;;;4.88;80.97
59831;BME280;45711;50.108;13.712;2023-02-13T10:47:21;99934.66;;;4.66;82.29
59831;BME280;45711;50.108;13.712;2023-02-13T10:50:02;99934.25;;;4.62;82.26
59831;BME280;45711;50.108;13.712;2023-02-13T10:52:41;99940.16;;;4.64;82.35
59831;BME280;45711;50.108;13.712;2023-02-13T10:55:30;99932.22;;;4.64;83.05
59831;BME280;45711;50.108;13.712;2023-02-13T10:58:07;99928.91;;;5.81;75.69
59831;BME280;45711;50.108;13.712;2023-02-13T11:00:37;99915.34;;;6.17;73.64
59831;BME280;45711;50.108;13.712;2023-02-13T11:03:14;99931.78;;;6.41;70.10
59831;BME280;45711;50.108;13.712;2023-02-13T11:05:42;99934.00;;;6.37;69.90
59831;BME280;45711;50.108;13.712;2023-02-13T11:08:14;99927.22;;;5.73;75.30
59831;BME280;45711;50.108;13.712;2023-02-13T11:10:41;99934.66;;;6.46;71.60
59831;BME280;45711;50.108;13.712;2023-02-13T11:13:15;99927.09;;;6.69;70.47
59831;BME280;45711;50.108;13.712;2023-02-13T11:15:41;99925.03;;;6.45;72.17
59831;BME280;45711;50.108;13.712;2023-02-13T11:18:12;99915.41;;;6.44;72.09
59831;BME280;45711;50.108;13.712;2023-02-13T11:20:41;99920.75;;;5.89;74.97
59831;BME280;45711;50.108;13.712;2023-02-13T11:23:39;99923.38;;;5.41;78.07
59831;BME280;45711;50.108;13.712;2023-02-13T11:26:06;99923.88;;;5.99;74.66
59831;BME280;45711;50.108;13.712;2023-02-13T11:28:36;99908.34;;;5.55;77.21
59831;BME280;45711;50.108;13.712;2023-02-13T11:31:11;99915.44;;;5.41;77.66
59831;BME280;45711;50.108;13.712;2023-02-13T11:33:37;99908.53;;;5.95;74.45
59831;BME280;45711;50.108;13.712;2023-02-13T11:36:05;99917.25;;;6.37;72.65
59831;BME280;45711;50.108;13.712;2023-02-13T11:38:32;99907.84;;;6.41;72.47
59831;BME280;45711;50.108;13.712;2023-02-13T11:41:06;99901.94;;;5.43;77.22
59831;BME280;45711;50.108;13.712;2023-02-13T11:43:34;99908.56;;;5.53;76.60
59831;BME280;45711;50.108;13.712;2023-02-13T11:46:03;99909.44;;;5.74;76.37
59831;BME280;45711;50.108;13.712;2023-02-13T11:48:30;99896.88;;;5.13;78.70
59831;BME280;45711;50.108;13.712;2023-02-13T11:50:56;99902.53;;;5.38;77.99
59831;BME280;45711;50.108;13.712;2023-02-13T11:53:24;99902.34;;;6.49;72.57
59831;BME280;45711;50.108;13.712;2023-02-13T11:56:05;99899.84;;;6.41;72.57
59831;BME280;45711;50.108;13.712;2023-02-13T11:58:31;99893.50;;;6.28;73.46
59831;BME280;45711;50.108;13.712;2023-02-13T12:01:24;99893.28;;;5.62;76.54
59831;BME280;45711;50.108;13.712;2023-02-13T12:04:02;99888.06;;;5.41;76.88
59831;BME280;45711;50.108;13.712;2023-02-13T12:06:28;99884.09;;;6.33;72.40
59831;BME280;45711;50.108;13.712;2023-02-13T12:08:54;99880.00;;;6.30;73.23
59831;BME280;45711;50.108;13.712;2023-02-13T12:11:23;99890.25;;;6.53;71.00
59831;BME280;45711;50.108;13.712;2023-02-13T12:13:52;99890.63;;;5.69;75.44
59831;BME280;45711;50.108;13.712;2023-02-13T12:16:27;99884.94;;;5.78;75.30
59831;BME280;45711;50.108;13.712;2023-02-13T12:18:56;99873.38;;;5.99;73.31
59831;BME280;45711;50.108;13.712;2023-02-13T12:21:38;99868.75;;;6.48;71.53
59831;BME280;45711;50.108;13.712;2023-02-13T12:24:11;99870.81;;;5.71;75.46
59831;BME280;45711;50.108;13.712;2023-02-13T12:26:44;99863.28;;;5.34;77.39
59831;BME280;45711;50.108;13.712;2023-02-13T12:29:27;99877.13;;;6.18;74.23
59831;BME280;45711;50.108;13.712;2023-02-13T12:32:08;99869.31;;;5.49;76.54
59831;BME280;45711;50.108;13.712;2023-02-13T12:35:00;99866.09;;;5.25;78.20
59831;BME280;45711;50.108;13.712;2023-02-13T12:37:42;99864.44;;;6.34;72.47
59831;BME280;45711;50.108;13.712;2023-02-13T12:40:25;99857.09;;;6.36;71.90
59831;BME280;45711;50.108;13.712;2023-02-13T12:43:11;99853.97;;;5.99;74.60
59831;BME280;45711;50.108;13.712;2023-02-13T12:45:46;99851.75;;;6.82;69.52
59831;BME280;45711;50.108;13.712;2023-02-13T12:48:24;99841.50;;;5.99;73.61
59831;BME280;45711;50.108;13.712;2023-02-13T12:51:08;99846.94;;;5.30;77.51
59831;BME280;45711;50.108;13.712;2023-02-13T12:53:49;99841.16;;;6.49;71.10
59831;BME280;45711;50.108;13.712;2023-02-13T12:56:33;99833.38;;;5.53;76.50
59831;BME280;45711;50.108;13.712;2023-02-13T12:59:09;99843.06;;;5.87;74.56
59831;BME280;45711;50.108;13.712;2023-02-13T13:02:04;99829.47;;;6.50;71.55
59831;BME280;45711;50.108;13.712;2023-02-13T13:04:45;99828.41;;;5.37;76.95
59831;BME280;45711;50.108;13.712;2023-02-13T13:07:34;99829.09;;;5.11;78.14
59831;BME280;45711;50.108;13.712;2023-02-13T13:10:27;99829.53;;;5.69;75.85
59831;BME280;45711;50.108;13.712;2023-02-13T13:13:06;99826.72;;;5.84;74.74
59831;BME280;45711;50.108;13.712;2023-02-13T13:15:42;99830.34;;;5.21;77.86
59831;BME280;45711;50.108;13.712;2023-02-13T13:18:24;99825.63;;;5.58;76.04
59831;BME280;45711;50.108;13.712;2023-02-13T13:21:00;99820.22;;;5.93;74.88
59831;BME280;45711;50.108;13.712;2023-02-13T13:23:30;99824.34;;;6.15;73.66